Tiempo atmosférico en la estación meteorológica de Andorra, Teruel (762 m.)



Fecha
DESCASC
Temp. máxima en grados centígrados (hora)
DESCASC
Temp. mínima en grados centígrados (hora)
DESCASC
Temp. media en grados centígrados
DESCASC
Racha de viento máxima en m/sg (hora)
DESCASC
Velocidad máxima media en intervalos de 10 minutos(hora)
DESCASC
Precipitaciones diarias en mm
DESCASC
Precipitaciones de 00:00 a 06:00 en mm
DESCASC
Precipitaciones de 06:00 a 12:00 en mm
DESCASC
Precipitaciones de 12:00 a 18:00 en mm
DESCASC
Precipitaciones de 18:00 a 24:00 en mm
DESCASC
22-11-2020 11.3 (17:00) 2.6 (06:20) 7 7.22 (07:10) 5.83 (06:10) 0 0 0 0 0
21-11-2020 10.6 (14:00) 2.1 (08:30) 6.4 8.89 (04:30) 6.94 (03:50) 0 0 0 0 0
20-11-2020 11.5 (15:20) 5.1 (23:50) 8.3 16.67 (00:40) 11.67 (01:20) 0 0 0 0 0
19-11-2020 17.3 (14:00) 7.4 (00:00) 12.3 16.67 (18:10) 11.67 (19:00) 0 0 0 0 0
18-11-2020 16.3 (15:00) 9.4 (00:00) 12.8 6.39 (06:00) 5.56 (06:00) 0 0 0 0 0
17-11-2020 14.8 (12:20) 5.9 (00:00) 10.4 6.39 (05:00) 5.56 (06:10) 0 0 0 0 0
16-11-2020 16.6 (00:20) 8.4 (00:00) 12.5 19.17 (00:10) 15 (00:10) 0 0 0 0 0
15-11-2020 19.3 (14:00) 10.9 (00:00) 15.1 18.33 (23:59) 15.28 (23:59) 0 0 0 0 0
14-11-2020 13.4 (11:50) 8.6 (00:00) 11 3.61 (21:10) 3.33 (21:10) 0.4 0 0 0.2 0.2
13-11-2020 13.3 (11:10) 6 (00:00) 9.7 5.28 (13:40) 4.17 (13:40) 0 0 0 0 0
12-11-2020 14.6 (12:40) 7.2 (00:00) 10.9 6.94 (00:10) 6.39 (00:10) 0 0 0 0 0
11-11-2020 14.4 (14:10) 6.6 (00:00) 10.5 7.22 (23:59) 6.67 (23:59) 0 0 0 0 0
10-11-2020 14.5 (13:40) 7.4 (00:00) 11 8.06 (00:40) 7.22 (00:40) 0 0 0 0 0
09-11-2020 17 (13:30) 7.5 (00:00) 12.3 8.06 (14:00) 5.56 (12:00) 0 0 0 0 0
08-11-2020 15 (13:50) 8.3 (00:00) 11.7 8.61 (01:20) 7.78 (01:20) 0 0 0 0 0
07-11-2020 15 (14:40) 9.6 (00:00) 12.3 13.61 (07:20) 11.11 (07:20) 8.6 1 7.6 0 0
06-11-2020 14.8 (14:40) 10 (00:00) 12.4 13.33 (14:10) 10 (14:30) 0.2 0.2 0 0 0
05-11-2020 10.6 (23:40) 5.6 (00:00) 8.1 7.22 (22:50) 6.11 (22:50) 9.2 0.2 0 0.2 8.8
04-11-2020 -- (--) -- (--) -- -- (--) -- (--) -- -- 5.8 7 0.2
03-11-2020 15 (01:20) 6.7 (00:00) 10.8 12.22 (20:10) 8.33 (20:30) 5.8 0 2 1.6 2.2
02-11-2020 22.8 (12:30) 11.9 (00:00) 17.3 7.5 (01:50) 6.39 (03:40) 0 0 0 0 0
01-11-2020 22.5 (13:50) 11.2 (00:00) 16.8 8.61 (08:50) 6.94 (07:20) 0 0 0 0 0
31-10-2020 22.5 (14:00) 10.4 (00:00) 16.4 6.94 (14:30) 5.83 (07:40) 0 0 0 0 0
30-10-2020 18.5 (12:20) 9.5 (00:00) 14 6.11 (03:50) 4.72 (02:30) 0 0 0 0 0
29-10-2020 19.2 (14:20) 8.8 (00:00) 14 8.06 (09:50) 6.94 (04:50) 0 0 0 0 0
28-10-2020 19.8 (13:30) 9.5 (00:00) 14.6 11.94 (00:20) 9.44 (00:20) 0 0 0 0 0

Gráficas

Temp. máximas Temp. mínimas Temp. medias Precipitaciones Rachas de viento máximas Velocidades máximas media en intervalos de 10 minutos

Datos horarios

Fecha y hora oficial Temperatura (ºC) Velocidad del viento (km/h) Dirección del viento Racha (km/h) Dirección de racha Precipitación (mm) Presión (hPa) Tendencia (hPa) Humedad (%)
2020-11-26 23:00:00 9.8 11 Este 22 Este 0 -- -- 89
2020-11-26 22:00:00 10.1 19 Este 24 Este 0 -- -- 83
2020-11-26 21:00:00 9.9 4 Este 26 Este 0 -- -- 84
2020-11-26 20:00:00 10.3 18 Este 29 Sudeste 0 -- -- 84
2020-11-26 19:00:00 10 24 Este 34 Este 0 -- -- 82
2020-11-26 18:00:00 10 19 Este 35 Este 0 -- -- 81
2020-11-26 17:00:00 9.7 22 Este 34 Este 0 -- -- 86
2020-11-26 16:00:00 9.8 23 Este 33 Este 0 -- -- 93
2020-11-26 15:00:00 9.8 17 Este 26 Este 0 -- -- 94
2020-11-26 14:00:00 10.6 11 Este 22 Este 0 -- -- 88
2020-11-26 13:00:00 9.2 12 Este 22 Este 0 -- -- 92
2020-11-26 12:00:00 10.6 16 Este 23 Este 0 -- -- 79
2020-11-26 11:00:00 10.1 13 Este 25 Este 0 -- -- 82
2020-11-26 10:00:00 9.5 4 Sudeste 25 Sudeste 0 -- -- 84
2020-11-26 09:00:00 8.4 12 Este 20 Este 0 -- -- 86
2020-11-26 08:00:00 7.7 8 Este 22 Este 0 -- -- 88
2020-11-26 07:00:00 8.2 12 Este 17 Este 0 -- -- 87
2020-11-26 06:00:00 7.9 9 Este 22 Sudeste 0 -- -- 86
2020-11-26 05:00:00 8.8 13 Sudeste 30 Sudeste 0 -- -- 83
2020-11-26 04:00:00 8.5 12 Sudeste 27 Este 0 -- -- 85
2020-11-26 03:00:00 8.8 14 Este 29 Sudeste 0 -- -- 83
2020-11-26 02:00:00 8 15 Sudeste 27 Sudeste 0 -- -- 85
2020-11-26 01:00:00 8.4 14 Sur 26 Sur 0 -- -- 80
2020-11-26 00:00:00 8.6 17 Sur 28 Sur 0 -- -- 78
2020-11-25 23:00:00 7.9 15 Sur 29 Sur 0 -- -- 79
2020-11-25 22:00:00 8.7 16 Sur 26 Sur 0 -- -- 74
2020-11-25 21:00:00 7.7 19 Sur 24 Sur 0 -- -- 79
2020-11-25 20:00:00 9.6 8 Sudeste 15 Sudeste 0 -- -- 73
2020-11-25 19:00:00 9.5 9 Sudeste 18 Sudeste 0 -- -- 74
2020-11-25 18:00:00 8.6 11 Este 13 Este 0 -- -- 70
2020-11-25 17:00:00 9.3 11 Este 15 Este 0 -- -- 68
2020-11-25 16:00:00 9.6 13 Este 19 Nordeste 0 -- -- 63
2020-11-25 15:00:00 10.2 14 Nordeste 19 Este 0 -- -- 63
2020-11-25 14:00:00 11 16 Este 24 Este 0 -- -- 59
2020-11-25 13:00:00 10.9 11 Nordeste 18 Nordeste 0 -- -- 56
2020-11-25 12:00:00 10.5 11 Nordeste 14 Nordeste 0 -- -- 60
2020-11-25 11:00:00 10.1 3 Nordeste 11 Oeste 0 -- -- 59
2020-11-25 10:00:00 6.8 11 Oeste 20 Oeste 0 -- -- 65
2020-11-25 09:00:00 4.7 16 Oeste 20 Oeste 0 -- -- 65
2020-11-25 08:00:00 4 16 Oeste 20 Oeste 0 -- -- 67
2020-11-25 07:00:00 4.5 15 Oeste 18 Oeste 0 -- -- 67
2020-11-25 06:00:00 3.9 15 Oeste 16 Oeste 0 -- -- 75
2020-11-25 05:00:00 5.1 12 Oeste 15 Oeste 0 -- -- 71
2020-11-25 04:00:00 5.5 13 Oeste 17 Oeste 0 -- -- 68
2020-11-25 03:00:00 5.9 11 Sudoeste 13 Oeste 0 -- -- 64
2020-11-25 02:00:00 6.6 8 Oeste 11 Oeste 0 -- -- 67
2020-11-25 01:00:00 6.5 8 Oeste 9 Oeste 0 -- -- 70
2020-11-25 00:00:00 6.1 6 Sur 10 Oeste 0 -- -- 76
2020-11-24 23:00:00 6.7 7 Oeste 17 Oeste 0 -- -- 76
2020-11-24 22:00:00 6.5 13 Oeste 15 Oeste 0 -- -- 77
2020-11-24 21:00:00 8.1 8 Sur 9 Sur 0 -- -- 71
2020-11-24 20:00:00 9.7 6 Sudeste 11 Este 0 -- -- 70
2020-11-24 19:00:00 9.6 9 Este 14 Este 0 -- -- 70
2020-11-24 18:00:00 9.3 7 Este 9 Este 0 -- -- 69
2020-11-24 17:00:00 9.3 5 Sur 10 Este 0 -- -- 66
2020-11-24 16:00:00 9.2 9 Este 14 Este 0 -- -- 68
2020-11-24 15:00:00 10.2 10 Nordeste 15 Este 0 -- -- 63
2020-11-24 14:00:00 10.5 9 Nordeste 13 Nordeste 0 -- -- 61
2020-11-24 13:00:00 9.9 10 Este 14 Nordeste 0 -- -- 61
2020-11-24 12:00:00 10.3 10 Nordeste 12 Nordeste 0 -- -- 58
2020-11-24 11:00:00 9.8 6 Este 9 Nordeste 0 -- -- 59
2020-11-24 10:00:00 7.9 4 Este 10 Oeste 0 -- -- 62
2020-11-24 09:00:00 5.4 8 Oeste 10 Oeste 0 -- -- 70
2020-11-24 08:00:00 4.2 10 Oeste 12 Oeste 0 -- -- 75
2020-11-24 07:00:00 5.1 5 Sudoeste 8 Sudoeste 0 -- -- 70
2020-11-24 06:00:00 5.3 3 Oeste 14 Oeste 0 -- -- 70
2020-11-24 05:00:00 4.3 11 Oeste 14 Oeste 0 -- -- 77
2020-11-24 04:00:00 4.2 6 Oeste 10 Oeste 0 -- -- 77
2020-11-24 03:00:00 6.1 3 Nordeste 7 Oeste 0 -- -- 63
2020-11-24 02:00:00 5.1 6 Oeste 8 Oeste 0 -- -- 72
2020-11-24 01:00:00 6.2 0 Calma 5 Sudoeste 0 -- -- 63
2020-11-24 00:00:00 7.7 3 Nordeste 5 Nordeste 0 -- -- 53
2020-11-23 23:00:00 7.4 5 Este 6 Este 0 -- -- 53
2020-11-23 22:00:00 7.7 4 Este 11 Sur 0 -- -- 54
2020-11-23 21:00:00 7.7 10 Sur 13 Sur 0 -- -- 63
2020-11-23 20:00:00 7.3 8 Sur 12 Sur 0 -- -- 66
2020-11-23 19:00:00 7.2 11 Sudoeste 12 Sur 0 -- -- 68
2020-11-23 18:00:00 8.2 4 Sudoeste 6 Este 0 -- -- 63
2020-11-23 17:00:00 8.5 6 Este 12 Este 0 -- -- 63
2020-11-23 16:00:00 9.2 8 Nordeste 15 Nordeste 0 -- -- 59
2020-11-23 15:00:00 9.9 10 Nordeste 15 Nordeste 0 -- -- 60
2020-11-23 14:00:00 9.8 10 Nordeste 17 Nordeste 0 -- -- 63
2020-11-23 13:00:00 10.1 13 Nordeste 19 Nordeste 0 -- -- 60
2020-11-23 12:00:00 10.4 8 Nordeste 12 Este 0 -- -- 56
2020-11-23 11:00:00 9.3 3 Noroeste 12 Oeste 0 -- -- 58
2020-11-23 10:00:00 6.1 9 Oeste 15 Oeste 0 -- -- 65
2020-11-23 09:00:00 4.4 12 Oeste 16 Oeste 0 -- -- 68
2020-11-23 08:00:00 4.1 13 Oeste 18 Oeste 0 -- -- 68
2020-11-23 07:00:00 3.6 13 Oeste 17 Oeste 0 -- -- 71
2020-11-23 06:00:00 3.1 14 Oeste 19 Oeste 0 -- -- 75
2020-11-23 05:00:00 3.8 17 Oeste 19 Oeste 0 -- -- 72
2020-11-23 04:00:00 4.3 12 Oeste 19 Oeste 0 -- -- 70
2020-11-23 03:00:00 4.9 13 Oeste 18 Oeste 0 -- -- 69
2020-11-23 02:00:00 4.4 17 Oeste 19 Oeste 0 -- -- 75
2020-11-23 01:00:00 5.4 11 Oeste 15 Oeste 0 -- -- 71
2020-11-23 00:00:00 5.8 14 Oeste 18 Oeste 0 -- -- 71
2020-11-22 23:00:00 5.7 15 Oeste 18 Oeste 0 -- -- 71
2020-11-22 22:00:00 6.5 14 Oeste 15 Oeste 0 -- -- 67
2020-11-22 21:00:00 8.5 0 Calma 7 Sudoeste 0 -- -- 54
2020-11-22 20:00:00 7.8 6 Sur 7 Sudoeste 0 -- -- 60
2020-11-22 19:00:00 9 4 Sudeste 8 Este 0 -- -- 54
2020-11-22 18:00:00 9.1 4 Este 13 Sur 0 -- -- 56
2020-11-22 17:00:00 11.3 5 Sur 10 Sur 0 -- -- 50
2020-11-22 16:00:00 9.3 7 Nordeste 15 Nordeste 0 -- -- 56
2020-11-22 15:00:00 9.9 9 Nordeste 15 Nordeste 0 -- -- 54
2020-11-22 14:00:00 10 12 Nordeste 17 Nordeste 0 -- -- 57
2020-11-22 13:00:00 10.2 11 Nordeste 16 Nordeste 0 -- -- 57
2020-11-22 12:00:00 10.3 10 Este 13 Este 0 -- -- 54
2020-11-22 11:00:00 10.6 4 Oeste 13 Oeste 0 -- -- 52
2020-11-22 10:00:00 7.4 12 Oeste 18 Oeste 0 -- -- 56
2020-11-22 09:00:00 4.9 15 Oeste 21 Oeste 0 -- -- 60
2020-11-22 08:00:00 4 17 Oeste 26 Oeste 0 -- -- 61
2020-11-22 07:00:00 3.7 19 Oeste 24 Oeste 0 -- -- 59
2020-11-22 06:00:00 3.1 19 Oeste 22 Oeste 0 -- -- 59
2020-11-22 05:00:00 3.6 13 Oeste 21 Oeste 0 -- -- 58
2020-11-22 04:00:00 3.2 17 Oeste 18 Oeste 0 -- -- 59
2020-11-22 03:00:00 3.9 13 Oeste 14 Oeste 0 -- -- 58
2020-11-22 02:00:00 5.1 3 Oeste 14 Oeste 0 -- -- 54
2020-11-22 01:00:00 5.1 8 Oeste 13 Oeste 0 -- -- 52
2020-11-22 00:00:00 4.7 11 Oeste 13 Oeste 0 -- -- 54
2020-11-21 23:00:00 7.5 2 Nordeste 4 Nordeste 0 -- -- 46
2020-11-21 22:00:00 7.1 0 Calma 13 Este 0 -- -- 45
2020-11-21 21:00:00 8.2 12 Este 14 Este 0 -- -- 41
2020-11-21 20:00:00 7.1 5 Sudoeste 10 Sudeste 0 -- -- 44
2020-11-21 19:00:00 8.2 8 Sur 13 Este 0 -- -- 40
2020-11-21 18:00:00 8.3 11 Este 15 Este 0 -- -- 40
2020-11-21 17:00:00 9.4 11 Este 13 Este 0 -- -- 40
2020-11-21 16:00:00 10.3 4 Este 12 Este 0 -- -- 37
2020-11-21 15:00:00 10.5 5 Este 13 Este 0 -- -- 37
2020-11-21 14:00:00 10.6 4 Este 18 Nordeste 0 -- -- 36
2020-11-21 13:00:00 10.1 6 Este 16 Nordeste 0 -- -- 33
2020-11-21 12:00:00 10 8 Nordeste 15 Nordeste 0 -- -- 33
2020-11-21 11:00:00 8 4 Noroeste 11 Oeste 0 -- -- 37
2020-11-21 10:00:00 5.4 10 Oeste 18 Oeste 0 -- -- 45
2020-11-21 09:00:00 2.6 15 Oeste 22 Oeste 0 -- -- 50
2020-11-21 08:00:00 2.4 18 Oeste 19 Oeste 0 -- -- 50
2020-11-21 07:00:00 2.8 17 Oeste 22 Oeste 0 -- -- 49
2020-11-21 06:00:00 3 17 Oeste 22 Oeste 0 -- -- 49
2020-11-21 05:00:00 3.9 16 Oeste 32 Oeste 0 -- -- 46
2020-11-21 04:00:00 3.8 23 Oeste 31 Oeste 0 -- -- 47
2020-11-21 03:00:00 4.7 19 Oeste 28 Oeste 0 -- -- 42
2020-11-21 02:00:00 5.1 17 Oeste 27 Oeste 0 -- -- 42
2020-11-21 01:00:00 5.1 17 Oeste 28 Oeste 0 -- -- 43
2020-11-21 00:00:00 5.1 21 Oeste 27 Oeste 0 -- -- 47
2020-11-20 23:00:00 5.4 16 Oeste 36 Oeste 0 -- -- 49
2020-11-20 22:00:00 5.6 28 Oeste 37 Oeste 0 -- -- 54
2020-11-20 21:00:00 5.8 20 Oeste 45 Oeste 0 -- -- 53
2020-11-20 20:00:00 7.2 31 Oeste 48 Oeste 0 -- -- 49
2020-11-20 19:00:00 8 37 Oeste 51 Noroeste 0 -- -- 50
2020-11-20 18:00:00 8.7 26 Noroeste 42 Oeste 0 -- -- 53
2020-11-20 17:00:00 10.3 31 Noroeste 45 Noroeste 0 -- -- 52
2020-11-20 16:00:00 11.2 32 Noroeste 54 Noroeste 0 -- -- 52
2020-11-20 15:00:00 11.3 35 Noroeste 42 Noroeste 0 -- -- 51
2020-11-20 14:00:00 11 27 Noroeste 47 Noroeste 0 -- -- 53
2020-11-20 13:00:00 10.5 37 Oeste 54 Oeste 0 -- -- 55
2020-11-20 12:00:00 9.5 39 Oeste 52 Oeste 0 -- -- 61
2020-11-20 11:00:00 8.4 36 Oeste 58 Noroeste 0 -- -- 65
2020-11-20 10:00:00 7.3 38 Noroeste 51 Oeste 0 -- -- 70
2020-11-20 09:00:00 6.1 29 Oeste 47 Noroeste 0 -- -- 71
2020-11-20 08:00:00 5.3 26 Oeste 49 Oeste 0 -- -- 76
2020-11-20 07:00:00 5.5 36 Oeste 53 Oeste 0 -- -- 77
2020-11-20 06:00:00 5.8 36 Oeste 54 Oeste 0 -- -- 75
2020-11-20 05:00:00 5.7 13 Oeste 38 Oeste 0 -- -- 75
2020-11-20 04:00:00 5.7 28 Oeste 40 Oeste 0 -- -- 79
2020-11-20 03:00:00 6.2 37 Oeste 49 Oeste 0 -- -- 79
2020-11-20 02:00:00 6.5 35 Oeste 56 Noroeste 0 -- -- 82
2020-11-20 01:00:00 7.3 32 Oeste 60 Oeste 0 -- -- 80
2020-11-20 00:00:00 7.7 31 Noroeste 41 Oeste 0 -- -- 82
2020-11-19 23:00:00 7.7 34 Oeste 48 Oeste 0 -- -- 84
2020-11-19 22:00:00 8.2 32 Oeste 47 Oeste 0 -- -- 82
2020-11-19 21:00:00 9.2 34 Oeste 53 Oeste 0 -- -- 83
2020-11-19 20:00:00 10.7 35 Oeste 59 Noroeste 0 -- -- 78
2020-11-19 19:00:00 12 42 Oeste 60 Noroeste 0 -- -- 76
2020-11-19 18:00:00 13.2 34 Noroeste 50 Noroeste 0 -- -- 74
2020-11-19 17:00:00 15.3 28 Noroeste 42 Oeste 0 -- -- 69
2020-11-19 16:00:00 16.6 28 Noroeste 48 Noroeste 0 -- -- 65
2020-11-19 15:00:00 16.8 29 Noroeste 42 Noroeste 0 -- -- 68
2020-11-19 14:00:00 17.3 28 Noroeste 44 Noroeste 0 -- -- 67
2020-11-19 13:00:00 16.5 24 Noroeste 36 Noroeste 0 -- -- 69
2020-11-19 12:00:00 15.2 21 Oeste 28 Oeste 0 -- -- 72
2020-11-19 11:00:00 13.5 14 Oeste 20 Oeste 0 -- -- 74
2020-11-19 10:00:00 10.7 10 Sudoeste 17 Oeste 0 -- -- 81
2020-11-19 09:00:00 8.7 14 Oeste 22 Oeste 0 -- -- 82
2020-11-19 08:00:00 7.8 18 Oeste 23 Oeste 0 -- -- 86
2020-11-19 07:00:00 7.9 20 Oeste 22 Oeste 0 -- -- 86
2020-11-19 06:00:00 8.4 18 Oeste 23 Oeste 0 -- -- 86
2020-11-19 05:00:00 8.4 19 Oeste 21 Oeste 0 -- -- 88
2020-11-19 04:00:00 8.7 18 Oeste 21 Oeste 0 -- -- 90
2020-11-19 03:00:00 9.2 15 Oeste 19 Oeste 0 -- -- 87
2020-11-19 02:00:00 9.4 12 Oeste 15 Oeste 0 -- -- 88
2020-11-19 01:00:00 10.7 7 Oeste 10 Oeste 0 -- -- 84
2020-11-19 00:00:00 11.6 3 Noroeste 6 Noroeste 0 -- -- 77
2020-11-18 23:00:00 11.6 3 Norte 8 Nordeste 0 -- -- 80
2020-11-18 22:00:00 11.8 6 Este 10 Nordeste 0 -- -- 80
2020-11-18 21:00:00 13.7 3 Norte 8 Noroeste 0 -- -- 66
2020-11-18 20:00:00 13.9 5 Sudoeste 10 Sudoeste 0 -- -- 70
2020-11-18 19:00:00 13.8 9 Sudoeste 10 Sudoeste 0 -- -- 72
2020-11-18 18:00:00 14.5 0 Calma 5 Sudoeste 0 -- -- 71
2020-11-18 17:00:00 14.9 5 Este 12 Este 0 -- -- 71
2020-11-18 16:00:00 16 8 Este 12 Nordeste 0 -- -- 63
2020-11-18 15:00:00 16.3 8 Este 15 Este 0 -- -- 61
2020-11-18 14:00:00 16.1 11 Este 15 Este 0 -- -- 65
2020-11-18 13:00:00 15.6 12 Este 18 Este 0 -- -- 68
2020-11-18 12:00:00 15.5 8 Este 12 Nordeste 0 -- -- 64
2020-11-18 11:00:00 15.6 5 Noroeste 14 Oeste 0 -- -- 58
2020-11-18 10:00:00 13.3 11 Oeste 18 Oeste 0 -- -- 63
2020-11-18 09:00:00 11.2 13 Oeste 21 Oeste 0 -- -- 69
2020-11-18 08:00:00 10.3 15 Oeste 20 Oeste 0 -- -- 72
2020-11-18 07:00:00 9.8 18 Oeste 22 Oeste 0 -- -- 73
2020-11-18 06:00:00 9.7 20 Oeste 23 Oeste 0 -- -- 72
2020-11-18 05:00:00 10.4 16 Oeste 17 Oeste 0 -- -- 67
2020-11-18 04:00:00 9.6 12 Sudoeste 15 Sudoeste 0 -- -- 70
2020-11-18 03:00:00 10.3 7 Sudoeste 17 Oeste 0 -- -- 69
2020-11-18 02:00:00 9.6 14 Oeste 15 Oeste 0 -- -- 77
2020-11-18 01:00:00 10 10 Oeste 18 Oeste 0 -- -- 80
2020-11-18 00:00:00 11 4 Noroeste 14 Oeste 0 -- -- 76
2020-11-17 23:00:00 11.5 2 Oeste 6 Sur 0 -- -- 71
2020-11-17 22:00:00 11.5 4 Sur 8 Sur 0 -- -- 72
2020-11-17 21:00:00 11.9 4 Sudeste 9 Este 0 -- -- 70
2020-11-17 20:00:00 12.8 5 Sudeste 12 Sudeste 0 -- -- 64
2020-11-17 19:00:00 12.5 8 Este 10 Sudeste 0 -- -- 68
2020-11-17 18:00:00 12.7 7 Este 12 Este 0 -- -- 70
2020-11-17 17:00:00 13.9 7 Este 12 Este 0 -- -- 67
2020-11-17 16:00:00 14.1 8 Este 15 Este 0 -- -- 66
2020-11-17 15:00:00 14.2 12 Este 18 Este 0 -- -- 64
2020-11-17 14:00:00 14.1 9 Este 21 Este 0 -- -- 65
2020-11-17 13:00:00 14 14 Este 21 Este 0 -- -- 70
2020-11-17 12:00:00 14.5 10 Nordeste 16 Este 0 -- -- 64
2020-11-17 11:00:00 12.8 6 Noroeste 13 Oeste 0 -- -- 73
2020-11-17 10:00:00 10.4 11 Oeste 17 Oeste 0 -- -- 86
2020-11-17 09:00:00 8 11 Oeste 15 Oeste 0 -- -- 91
2020-11-17 08:00:00 6.6 15 Oeste 23 Oeste 0 -- -- 96
2020-11-17 07:00:00 6.3 18 Oeste 22 Oeste 0 -- -- 97
2020-11-17 06:00:00 6.3 19 Oeste 22 Oeste 0 -- -- 97
2020-11-17 05:00:00 6.4 19 Oeste 23 Oeste 0 -- -- 97
2020-11-17 04:00:00 6 17 Oeste 21 Oeste 0 -- -- 94
2020-11-17 03:00:00 7.1 10 Sudoeste 14 Sur 0 -- -- 93
2020-11-17 02:00:00 8.8 6 Sudeste 13 Sudeste 0 -- -- 87
2020-11-17 01:00:00 8.6 6 Sudeste 9 Sudeste 0 -- -- 90
2020-11-17 00:00:00 8.4 9 Sur 12 Sur 0 -- -- 91
2020-11-16 23:00:00 9.1 5 Sur 12 Sur 0 -- -- 88
2020-11-16 22:00:00 9 9 Sudoeste 13 Noroeste 0 -- -- 88
2020-11-16 21:00:00 10.1 3 Norte 21 Noroeste 0 -- -- 84
2020-11-16 20:00:00 9.9 12 Oeste 22 Oeste 0 -- -- 85
2020-11-16 19:00:00 11 19 Oeste 24 Oeste 0 -- -- 82
2020-11-16 18:00:00 11.4 8 Oeste 25 Noroeste 0 -- -- 79
2020-11-16 17:00:00 12.9 21 Noroeste 31 Oeste 0 -- -- 74
2020-11-16 16:00:00 14.6 25 Oeste 35 Oeste 0 -- -- 69
2020-11-16 15:00:00 14.5 28 Oeste 41 Oeste 0 -- -- 67
2020-11-16 14:00:00 13.8 20 Noroeste 32 Oeste 0 -- -- 71
2020-11-16 13:00:00 13.5 20 Noroeste 36 Oeste 0 -- -- 70
2020-11-16 12:00:00 13.3 30 Oeste 38 Oeste 0 -- -- 73
2020-11-16 11:00:00 11.8 27 Oeste 43 Oeste 0 -- -- 81
2020-11-16 10:00:00 11.5 27 Oeste 34 Oeste 0 -- -- 84
2020-11-16 09:00:00 10.5 22 Oeste 36 Oeste 0 -- -- 89
2020-11-16 08:00:00 9.9 29 Oeste 37 Oeste 0 -- -- 93
2020-11-16 07:00:00 10.9 27 Oeste 38 Oeste 0 -- -- 93
2020-11-16 06:00:00 12 26 Noroeste 38 Noroeste 0 -- -- 92
2020-11-16 05:00:00 13.7 26 Noroeste 37 Noroeste 0 -- -- 84
2020-11-16 04:00:00 14.8 28 Oeste 38 Oeste 0 -- -- 77
2020-11-16 03:00:00 15.4 31 Oeste 51 Oeste 0 -- -- 75
2020-11-16 02:00:00 16.1 33 Oeste 51 Oeste 0 -- -- 71
2020-11-16 01:00:00 16.5 41 Oeste 69 Oeste 0 -- -- 69
2020-11-16 00:00:00 16.5 55 Oeste 66 Oeste 0 -- -- 68
2020-11-15 23:00:00 16.7 50 Oeste 63 Oeste 0 -- -- 67
2020-11-15 22:00:00 16.5 36 Oeste 54 Oeste 0 -- -- 67
2020-11-15 21:00:00 15.6 32 Sudoeste 47 Oeste 0 -- -- 73
2020-11-15 20:00:00 16.3 35 Oeste 60 Sudoeste 0 -- -- 70
2020-11-15 19:00:00 16.5 42 Oeste 58 Oeste 0 -- -- 70
2020-11-15 18:00:00 16.8 37 Oeste 49 Oeste 0 -- -- 68
2020-11-15 17:00:00 17.3 34 Oeste 48 Oeste 0 -- -- 66
2020-11-15 16:00:00 18.7 32 Oeste 46 Oeste 0 -- -- 61
2020-11-15 15:00:00 19 31 Oeste 40 Oeste 0 -- -- 60
2020-11-15 14:00:00 19.3 32 Oeste 47 Oeste 0 -- -- 59
2020-11-15 13:00:00 18.3 36 Oeste 45 Oeste 0 -- -- 62
2020-11-15 12:00:00 17 26 Oeste 41 Oeste 0 -- -- 66
2020-11-15 11:00:00 15.4 19 Oeste 37 Sudoeste 0 -- -- 72
2020-11-15 10:00:00 13.7 29 Sudoeste 37 Sudoeste 0 -- -- 75
2020-11-15 09:00:00 12.7 25 Sudoeste 37 Oeste 0 -- -- 76
2020-11-15 08:00:00 10.9 26 Sudoeste 33 Sudoeste 0 -- -- 83
2020-11-15 07:00:00 11.5 20 Sudoeste 27 Sudoeste 0 -- -- 81
2020-11-15 06:00:00 11.6 22 Oeste 34 Oeste 0 -- -- 82
2020-11-15 05:00:00 11.6 27 Oeste 36 Oeste 0 -- -- 82
2020-11-15 04:00:00 11.1 24 Oeste 32 Oeste 0 -- -- 86
2020-11-15 03:00:00 11.9 27 Oeste 32 Oeste 0 -- -- 83
2020-11-15 02:00:00 11.9 19 Sudoeste 23 Sudoeste 0 -- -- 86
2020-11-15 01:00:00 11.7 11 Oeste 13 Oeste 0 -- -- 88
2020-11-15 00:00:00 11.9 9 Oeste 13 Sudoeste 0 -- -- 86
2020-11-14 23:00:00 11.7 10 Sudoeste 12 Sudoeste 0 -- -- 86
2020-11-14 22:00:00 11.4 10 Sudoeste 13 Sur 0 -- -- 85
2020-11-14 21:00:00 11.6 10 Sur 13 Sur 0 -- -- 86
2020-11-14 20:00:00 12.1 2 Sudeste 9 Oeste 0.2 -- -- 83
2020-11-14 19:00:00 12.1 6 Oeste 9 Oeste 0 -- -- 86
2020-11-14 18:00:00 12.7 4 Sudeste 12 Sudeste 0 -- -- 77
2020-11-14 17:00:00 12 4 Sudeste 10 Este 0.2 -- -- 91
2020-11-14 16:00:00 12.1 6 Este 10 Este 0 -- -- 90
2020-11-14 15:00:00 12.3 4 Este 7 Este 0 -- -- 88
2020-11-14 14:00:00 12.2 5 Este 12 Nordeste 0 -- -- 87
2020-11-14 13:00:00 12.5 9 Este 12 Nordeste 0 -- -- 82
2020-11-14 12:00:00 13.2 8 Nordeste 11 Nordeste 0 -- -- 81
2020-11-14 11:00:00 12.9 6 Este 8 Este 0 -- -- 76
2020-11-14 10:00:00 11.9 5 Sur 10 Sur 0 -- -- 77
2020-11-14 09:00:00 9.7 8 Sudoeste 10 Sur 0 -- -- 80
2020-11-14 08:00:00 8.8 6 Sudoeste 10 Oeste 0 -- -- 86
2020-11-14 07:00:00 9.4 4 Sudoeste 6 Sudoeste 0 -- -- 83
2020-11-14 06:00:00 9.3 3 Sudoeste 6 Sudoeste 0 -- -- 84
2020-11-14 05:00:00 9.8 4 Sudeste 8 Sudoeste 0 -- -- 85
2020-11-14 04:00:00 9 8 Sudoeste 9 Sudoeste 0 -- -- 88
2020-11-14 03:00:00 9.4 3 Sudeste 7 Este 0 -- -- 87
2020-11-14 02:00:00 9.3 5 Sudoeste 8 Oeste 0 -- -- 89
2020-11-14 01:00:00 9.7 0 Calma 8 Oeste 0 -- -- 87
2020-11-14 00:00:00 9.3 5 Oeste 9 Sudoeste 0 -- -- 88
2020-11-13 23:00:00 10 9 Sur 12 Sur 0 -- -- 87
2020-11-13 22:00:00 11.5 10 Sudeste 13 Sudeste 0 -- -- 82
2020-11-13 21:00:00 10.8 7 Sudeste 14 Sudeste 0 -- -- 82
2020-11-13 20:00:00 10.2 6 Sur 13 Sudeste 0 -- -- 89
2020-11-13 19:00:00 10.6 7 Sur 15 Sudeste 0 -- -- 86
2020-11-13 18:00:00 10 8 Sur 10 Sur 0 -- -- 91
2020-11-13 17:00:00 9.9 5 Este 11 Este 0 -- -- 91
2020-11-13 16:00:00 10.3 9 Este 16 Nordeste 0 -- -- 88
2020-11-13 15:00:00 10.7 11 Nordeste 18 Este 0 -- -- 87
2020-11-13 14:00:00 11.8 14 Nordeste 19 Nordeste 0 -- -- 83
2020-11-13 13:00:00 12.3 11 Este 17 Nordeste 0 -- -- 83
2020-11-13 12:00:00 13 5 Este 13 Nordeste 0 -- -- 80
2020-11-13 11:00:00 12.9 3 Sur 6 Sur 0 -- -- 66
2020-11-13 10:00:00 11.1 3 Sur 9 Sur 0 -- -- 74
2020-11-13 09:00:00 8.6 6 Sur 14 Sur 0 -- -- 81
2020-11-13 08:00:00 7.3 13 Sur 15 Sur 0 -- -- 89
2020-11-13 07:00:00 7 6 Oeste 12 Oeste 0 -- -- 92
2020-11-13 06:00:00 6.5 6 Oeste 9 Oeste 0 -- -- 94
2020-11-13 05:00:00 7.8 7 Oeste 12 Oeste 0 -- -- 97
2020-11-13 04:00:00 6 4 Sudoeste 12 Sudoeste 0 -- -- 97
2020-11-13 03:00:00 6.5 8 Sudoeste 11 Sudoeste 0 -- -- 98
2020-11-13 02:00:00 6.2 3 Sur 8 Este 0 -- -- 97
2020-11-13 01:00:00 6.7 0 Calma 7 Este 0 -- -- 97
2020-11-13 00:00:00 7.7 3 Sur 6 Sudoeste 0 -- -- 98
2020-11-12 23:00:00 7.9 4 Sudoeste 7 Sur 0 -- -- 98
2020-11-12 22:00:00 7.5 0 Calma 8 Este 0 -- -- 97
2020-11-12 21:00:00 7.9 3 Sudeste 10 Este 0 -- -- 96
2020-11-12 20:00:00 8.6 6 Sudeste 17 Este 0 -- -- 96
2020-11-12 19:00:00 8.8 10 Este 17 Este 0 -- -- 95
2020-11-12 18:00:00 9.7 9 Este 14 Este 0 -- -- 95
2020-11-12 17:00:00 9.8 5 Este 9 Este 0 -- -- 91
2020-11-12 16:00:00 9.7 6 Este 10 Este 0 -- -- 91
2020-11-12 15:00:00 10.4 8 Este 15 Nordeste 0 -- -- 88
2020-11-12 14:00:00 11.6 12 Nordeste 23 Este 0 -- -- 83
2020-11-12 13:00:00 14.4 13 Este 18 Este 0 -- -- 58
2020-11-12 12:00:00 13.3 5 Este 10 Este 0 -- -- 70
2020-11-12 11:00:00 12.2 4 Nordeste 11 Oeste 0 -- -- 71
2020-11-12 10:00:00 10.3 8 Sudoeste 14 Oeste 0 -- -- 71
2020-11-12 09:00:00 9.8 12 Oeste 18 Oeste 0 -- -- 71
2020-11-12 08:00:00 8.9 15 Oeste 21 Oeste 0 -- -- 74
2020-11-12 07:00:00 9.3 17 Oeste 22 Oeste 0 -- -- 72
2020-11-12 06:00:00 9.4 14 Oeste 18 Oeste 0 -- -- 71
2020-11-12 05:00:00 10 17 Sudoeste 22 Oeste 0 -- -- 68
2020-11-12 04:00:00 9.2 18 Oeste 23 Oeste 0 -- -- 73
2020-11-12 03:00:00 9.1 19 Oeste 24 Oeste 0 -- -- 76
2020-11-12 02:00:00 9.7 17 Oeste 23 Oeste 0 -- -- 74
2020-11-12 01:00:00 9.3 18 Oeste 25 Oeste 0 -- -- 78
2020-11-12 00:00:00 9.2 24 Oeste 26 Oeste 0 -- -- 81
2020-11-11 23:00:00 9.2 22 Oeste 25 Oeste 0 -- -- 86
2020-11-11 22:00:00 9.5 15 Oeste 19 Oeste 0 -- -- 88
2020-11-11 21:00:00 10.4 14 Sudoeste 18 Sudoeste 0 -- -- 86
2020-11-11 20:00:00 12.2 10 Sur 18 Sudeste 0 -- -- 76
2020-11-11 19:00:00 12.2 10 Sudeste 20 Este 0 -- -- 77
2020-11-11 18:00:00 11.4 6 Este 14 Este 0 -- -- 87
2020-11-11 17:00:00 12 11 Este 17 Este 0 -- -- 86
2020-11-11 16:00:00 12.8 14 Este 18 Este 0 -- -- 81
2020-11-11 15:00:00 13.9 14 Este 19 Nordeste 0 -- -- 72
2020-11-11 14:00:00 14.3 14 Este 21 Nordeste 0 -- -- 65
2020-11-11 13:00:00 14 15 Este 21 Este 0 -- -- 68
2020-11-11 12:00:00 14.3 9 Este 13 Nordeste 0 -- -- 66
2020-11-11 11:00:00 12.5 2 Este 6 Oeste 0 -- -- 71
2020-11-11 10:00:00 9.5 5 Sudoeste 9 Oeste 0 -- -- 82
2020-11-11 09:00:00 8 6 Oeste 16 Oeste 0 -- -- 83
2020-11-11 08:00:00 6.8 14 Oeste 17 Oeste 0 -- -- 87
2020-11-11 07:00:00 6.7 13 Oeste 15 Oeste 0 -- -- 88
2020-11-11 06:00:00 6.9 15 Oeste 17 Oeste 0 -- -- 88
2020-11-11 05:00:00 7.3 14 Oeste 19 Oeste 0 -- -- 90
2020-11-11 04:00:00 7.4 15 Oeste 19 Oeste 0 -- -- 90
2020-11-11 03:00:00 7.9 14 Oeste 16 Oeste 0 -- -- 89
2020-11-11 02:00:00 8.4 13 Oeste 17 Oeste 0 -- -- 88
2020-11-11 01:00:00 8.2 14 Oeste 18 Oeste 0 -- -- 90
2020-11-11 00:00:00 8.5 15 Oeste 18 Oeste 0 -- -- 89
2020-11-10 23:00:00 9.1 12 Oeste 14 Oeste 0 -- -- 86
2020-11-10 22:00:00 9.7 10 Sudoeste 14 Sudoeste 0 -- -- 84
2020-11-10 21:00:00 10.3 9 Oeste 9 Oeste 0 -- -- 84
2020-11-10 20:00:00 11 5 Sudoeste 9 Sur 0 -- -- 83
2020-11-10 19:00:00 11 7 Oeste 11 Noroeste 0 -- -- 82
2020-11-10 18:00:00 11.8 9 Norte 15 Norte 0 -- -- 81
2020-11-10 17:00:00 14 17 Noroeste 26 Noroeste 0 -- -- 67
2020-11-10 16:00:00 14.5 17 Noroeste 28 Noroeste 0 -- -- 66
2020-11-10 15:00:00 14.4 15 Noroeste 24 Noroeste 0 -- -- 66
2020-11-10 14:00:00 13.9 11 Noroeste 21 Oeste 0 -- -- 69
2020-11-10 13:00:00 13.9 17 Oeste 26 Oeste 0 -- -- 69
2020-11-10 12:00:00 13.6 13 Oeste 24 Oeste 0 -- -- 72
2020-11-10 11:00:00 12.1 16 Oeste 23 Oeste 0 -- -- 74
2020-11-10 10:00:00 10.1 13 Oeste 17 Oeste 0 -- -- 85
2020-11-10 09:00:00 8 15 Oeste 23 Oeste 0 -- -- 91
2020-11-10 08:00:00 7.6 17 Oeste 21 Oeste 0 -- -- 89
2020-11-10 07:00:00 8.4 17 Sudoeste 21 Oeste 0 -- -- 87
2020-11-10 06:00:00 7.9 17 Oeste 18 Oeste 0 -- -- 90
2020-11-10 05:00:00 8.1 14 Oeste 18 Oeste 0 -- -- 90
2020-11-10 04:00:00 8.2 14 Oeste 20 Sudoeste 0 -- -- 91
2020-11-10 03:00:00 8.7 13 Sudoeste 19 Oeste 0 -- -- 89
2020-11-10 02:00:00 8.5 15 Oeste 28 Oeste 0 -- -- 92
2020-11-10 01:00:00 9.1 26 Oeste 29 Oeste 0 -- -- 91
2020-11-10 00:00:00 9.6 15 Oeste 18 Oeste 0 -- -- 89
2020-11-09 23:00:00 10.6 12 Oeste 15 Oeste 0 -- -- 87
2020-11-09 22:00:00 11 14 Oeste 17 Oeste 0 -- -- 86
2020-11-09 21:00:00 11.5 12 Sudoeste 13 Oeste 0 -- -- 83
2020-11-09 20:00:00 11.8 11 Sudoeste 13 Sudoeste 0 -- -- 84
2020-11-09 19:00:00 12.6 5 Sudoeste 9 Oeste 0 -- -- 81
2020-11-09 18:00:00 13.2 0 Calma 8 Este 0 -- -- 79
2020-11-09 17:00:00 13.8 6 Nordeste 19 Noroeste 0 -- -- 78
2020-11-09 16:00:00 14.9 12 Norte 21 Norte 0 -- -- 69
2020-11-09 15:00:00 14.6 10 Norte 18 Norte 0 -- -- 73
2020-11-09 14:00:00 15.4 18 Norte 29 Noroeste 0 -- -- 72
2020-11-09 13:00:00 16.5 11 Oeste 24 Oeste 0 -- -- 59
2020-11-09 12:00:00 15.6 20 Oeste 26 Oeste 0 -- -- 61
2020-11-09 11:00:00 13.6 4 Sudoeste 13 Oeste 0 -- -- 77
2020-11-09 10:00:00 10.3 12 Oeste 16 Oeste 0 -- -- 84
2020-11-09 09:00:00 8.5 11 Oeste 17 Oeste 0 -- -- 84
2020-11-09 08:00:00 8.1 15 Oeste 19 Oeste 0 -- -- 84
2020-11-09 07:00:00 7.8 16 Oeste 19 Oeste 0 -- -- 87
2020-11-09 06:00:00 8.2 14 Sudoeste 16 Oeste 0 -- -- 84
2020-11-09 05:00:00 8.4 12 Oeste 18 Oeste 0 -- -- 86
2020-11-09 04:00:00 8.2 13 Oeste 16 Oeste 0 -- -- 89
2020-11-09 03:00:00 7.9 14 Oeste 22 Sudoeste 0 -- -- 94
2020-11-09 02:00:00 8.4 12 Oeste 18 Oeste 0 -- -- 94
2020-11-09 01:00:00 8.6 16 Oeste 18 Oeste 0 -- -- 94
2020-11-09 00:00:00 10 14 Sudoeste 16 Sudoeste 0 -- -- 90
2020-11-08 23:00:00 10.2 7 Sudoeste 9 Sudoeste 0 -- -- 90
2020-11-08 22:00:00 10.6 5 Oeste 8 Oeste 0 -- -- 91
2020-11-08 21:00:00 11.5 0 Calma 4 Sudoeste 0 -- -- 90
2020-11-08 20:00:00 11.5 3 Noroeste 4 Norte 0 -- -- 89
2020-11-08 19:00:00 11.8 2 Nordeste 12 Este 0 -- -- 87
2020-11-08 18:00:00 12 12 Este 18 Este 0 -- -- 80
2020-11-08 17:00:00 13.1 15 Este 24 Este 0 -- -- 75
2020-11-08 16:00:00 13.8 18 Este 24 Este 0 -- -- 73
2020-11-08 15:00:00 14.4 17 Nordeste 28 Este 0 -- -- 69
2020-11-08 14:00:00 14.8 18 Nordeste 25 Este 0 -- -- 66
2020-11-08 13:00:00 14.5 13 Este 19 Este 0 -- -- 64
2020-11-08 12:00:00 13.8 15 Este 19 Este 0 -- -- 65
2020-11-08 11:00:00 12.6 5 Nordeste 10 Sudeste 0 -- -- 72
2020-11-08 10:00:00 11.1 8 Sur 13 Sur 0 -- -- 73
2020-11-08 09:00:00 9.3 8 Sudoeste 13 Oeste 0 -- -- 79
2020-11-08 08:00:00 8.6 10 Oeste 14 Oeste 0 -- -- 81
2020-11-08 07:00:00 8.4 10 Oeste 17 Sudoeste 0 -- -- 84
2020-11-08 06:00:00 8.9 14 Sudoeste 19 Sudoeste 0 -- -- 83
2020-11-08 05:00:00 9.3 13 Sudoeste 16 Sudoeste 0 -- -- 81
2020-11-08 04:00:00 8.9 14 Sudoeste 18 Sudoeste 0 -- -- 84
2020-11-08 03:00:00 8.8 12 Sudoeste 23 Sudoeste 0 -- -- 87
2020-11-08 02:00:00 9 19 Sudoeste 31 Oeste 0 -- -- 85
2020-11-08 01:00:00 9.3 27 Oeste 30 Oeste 0 -- -- 86
2020-11-08 00:00:00 10.7 23 Oeste 27 Sudoeste 0 -- -- 79
2020-11-07 23:00:00 9.9 16 Sudoeste 34 Oeste 0 -- -- 82
2020-11-07 22:00:00 11.7 30 Sudoeste 35 Sudoeste 0 -- -- 75
2020-11-07 21:00:00 11.1 14 Sudoeste 25 Sudoeste 0 -- -- 80
2020-11-07 20:00:00 11.1 19 Sudoeste 22 Oeste 0 -- -- 82
2020-11-07 19:00:00 12.2 23 Sudoeste 27 Sudoeste 0 -- -- 77
2020-11-07 18:00:00 12.9 15 Oeste 27 Sudoeste 0 -- -- 77
2020-11-07 17:00:00 14.4 22 Sudoeste 30 Sudoeste 0 -- -- 66
2020-11-07 16:00:00 14.3 17 Sudoeste 36 Sudoeste 0 -- -- 69
2020-11-07 15:00:00 14.9 19 Sudoeste 24 Sudoeste 0 -- -- 68
2020-11-07 14:00:00 14.7 15 Sudoeste 26 Sudoeste 0 -- -- 73
2020-11-07 13:00:00 14.1 10 Sur 20 Sur 0 -- -- 83
2020-11-07 12:00:00 13.1 6 Sur 25 Sur 0 -- -- 84
2020-11-07 11:00:00 11.3 13 Sur 28 Sur 0.2 -- -- 94
2020-11-07 10:00:00 11.4 15 Sur 21 Sur 0.8 -- -- 92
2020-11-07 09:00:00 11 14 Sudoeste 45 Sudoeste 1.2 -- -- 94
2020-11-07 08:00:00 11.1 35 Sudoeste 49 Sudoeste 5.4 -- -- 97
2020-11-07 07:00:00 13.2 21 Este 37 Este 0 -- -- 98
2020-11-07 06:00:00 13 27 Este 36 Este 0.2 -- -- 98
2020-11-07 05:00:00 13.1 27 Este 35 Este 0.8 -- -- 96
2020-11-07 04:00:00 13.4 21 Este 26 Este 0 -- -- 94
2020-11-07 03:00:00 14 15 Este 37 Sudeste 0 -- -- 86
2020-11-07 02:00:00 14.3 21 Este 35 Este 0 -- -- 85
2020-11-07 01:00:00 13.9 21 Este 32 Este 0 -- -- 88
2020-11-07 00:00:00 14.1 17 Este 33 Este 0 -- -- 87
2020-11-06 23:00:00 14.1 17 Este 33 Este 0 -- -- 87
2020-11-06 22:00:00 14 21 Este 32 Este 0 -- -- 88
2020-11-06 21:00:00 14.3 29 Este 40 Este 0 -- -- 84
2020-11-06 20:00:00 14.3 23 Este 48 Este 0 -- -- 86
2020-11-06 19:00:00 14.6 30 Este 45 Este 0 -- -- 85
2020-11-06 18:00:00 14 24 Este 35 Este 0 -- -- 95
2020-11-06 17:00:00 13.9 19 Este 35 Este 0 -- -- 97
2020-11-06 16:00:00 14.2 25 Este 39 Este 0 -- -- 96
2020-11-06 15:00:00 14.6 28 Este 48 Este 0 -- -- 98
2020-11-06 14:00:00 14.3 24 Este 36 Este 0 -- -- 100
2020-11-06 13:00:00 14 31 Este 39 Este 0 -- -- 100
2020-11-06 12:00:00 13.5 26 Este 31 Este 0 -- -- 100
2020-11-06 11:00:00 12.7 20 Este 24 Este 0 -- -- 100
2020-11-06 10:00:00 11.8 16 Este 22 Este 0 -- -- 100
2020-11-06 09:00:00 11.3 12 Este 22 Este 0 -- -- 100
2020-11-06 08:00:00 11.2 15 Este 23 Sudeste 0 -- -- 100
2020-11-06 07:00:00 10.2 11 Este 26 Este 0 -- -- 100
2020-11-06 06:00:00 10.6 17 Este 23 Este 0.2 -- -- 100
2020-11-06 05:00:00 10.2 8 Este 17 Este 0 -- -- 100
2020-11-06 04:00:00 10.5 15 Este 20 Este 0 -- -- 100
2020-11-06 03:00:00 10.5 13 Este 17 Este 0 -- -- 99
2020-11-06 02:00:00 10.8 12 Este 23 Este 0 -- -- 99
2020-11-06 01:00:00 10.5 17 Este 27 Este 0 -- -- 99
2020-11-06 00:00:00 10.4 17 Este 22 Este 0 -- -- 99
2020-11-05 23:00:00 10.4 21 Este 26 Este 1.2 -- -- 99
2020-11-05 22:00:00 9.9 12 Este 19 Este 3.4 -- -- 99
2020-11-05 21:00:00 9 11 Este 19 Este 3.2 -- -- 99
2020-11-05 20:00:00 8.5 17 Este 22 Este 1 -- -- 99
2020-11-05 19:00:00 8.5 18 Este 23 Este 0 -- -- 99
2020-11-05 18:00:00 8.3 18 Este 22 Este 0 -- -- 99
2020-11-05 17:00:00 8.1 13 Este 16 Este 0.2 -- -- 99
2020-11-05 16:00:00 7.9 13 Este 18 Este 0 -- -- 99
2020-11-05 15:00:00 7.8 15 Este 18 Nordeste 0 -- -- 98
2020-11-05 14:00:00 7.7 12 Nordeste 15 Nordeste 0 -- -- 98
2020-11-05 13:00:00 7.5 9 Nordeste 14 Este 0 -- -- 98
2020-11-05 12:00:00 7.7 9 Este 15 Nordeste 0 -- -- 98
2020-11-05 11:00:00 7.4 7 Este 15 Este 0 -- -- 98
2020-11-05 10:00:00 6.8 5 Este 13 Nordeste 0 -- -- 99
2020-11-05 09:00:00 6.2 10 Nordeste 13 Nordeste 0 -- -- 98
2020-11-05 08:00:00 6.2 11 Este 14 Este 0 -- -- 98
2020-11-05 07:00:00 5.9 9 Este 13 Este 0 -- -- 98
2020-11-05 06:00:00 5.6 8 Este 12 Este 0 -- -- 98
2020-11-05 05:00:00 5.8 9 Nordeste 11 Nordeste 0 -- -- 98
2020-11-05 04:00:00 5.6 5 Nordeste 8 Nordeste 0 -- -- 98
2020-11-05 03:00:00 5.7 3 Nordeste 11 Este 0 -- -- 98
2020-11-05 02:00:00 5.6 6 Este 14 Nordeste 0.2 -- -- 97
2020-11-05 01:00:00 5.7 8 Nordeste 13 Este 0 -- -- 97
2020-11-05 00:00:00 5.6 7 Nordeste 10 Nordeste 0.2 -- -- 96
2020-11-04 23:00:00 5.5 2 Nordeste 8 Oeste 0 -- -- 96
2020-11-04 22:00:00 5.4 0 Calma 8 Oeste 0 -- -- 96
2020-11-04 21:00:00 5.3 4 Oeste 7 Noroeste 0 -- -- 96
2020-11-04 20:00:00 5.1 3 Nordeste 12 Norte 0 -- -- 95
2020-11-04 19:00:00 5.2 3 Norte 10 Nordeste 0 -- -- 95
2020-11-04 18:00:00 5.5 4 Norte 9 Norte 0 -- -- 95
2020-11-04 17:00:00 5.6 4 Noroeste 8 Norte 0.2 -- -- 95
2020-11-04 16:00:00 5.6 3 Norte 9 Nordeste 0.8 -- -- 96
2020-11-04 15:00:00 5.3 7 Noroeste 10 Noroeste 1.8 -- -- 96
2020-11-04 14:00:00 5.4 6 Oeste 12 Oeste 2.6 -- -- 96
2020-11-04 13:00:00 5.3 9 Oeste 15 Oeste 1.6 -- -- 95
2020-11-04 12:00:00 5.3 10 Oeste 13 Oeste 0.8 -- -- 94
2020-11-04 11:00:00 5.1 12 Oeste 19 Oeste 1.2 -- -- 95
2020-11-04 10:00:00 4.8 7 Oeste 19 Oeste 2.4 -- -- 94
2020-11-04 09:00:00 -- -- -- -- -- -- -- -- --
2020-11-04 08:00:00 -- -- -- -- -- -- -- -- --
2020-11-04 07:00:00 -- -- -- -- -- -- -- -- --
2020-11-04 06:00:00 -- -- -- -- -- -- -- -- --
2020-11-04 05:00:00 -- -- -- -- -- -- -- -- --
2020-11-04 04:00:00 -- -- -- -- -- -- -- -- --
2020-11-04 03:00:00 -- -- -- -- -- -- -- -- --
2020-11-04 02:00:00 6.1 17 Oeste 23 Oeste 0.2 -- -- 94
2020-11-04 01:00:00 6.4 17 Oeste 25 Oeste 0.4 -- -- 94
2020-11-04 00:00:00 6.7 17 Oeste 26 Oeste 1 -- -- 95
2020-11-03 23:00:00 7.2 19 Oeste 32 Oeste 1 -- -- 93
2020-11-03 22:00:00 8.2 24 Oeste 37 Oeste 0 -- -- 88
2020-11-03 21:00:00 8.5 24 Oeste 44 Noroeste 0 -- -- 90
2020-11-03 20:00:00 8.5 25 Oeste 33 Oeste 0.2 -- -- 93
2020-11-03 19:00:00 8.5 23 Oeste 32 Oeste 0 -- -- 92
2020-11-03 18:00:00 8.8 23 Oeste 36 Oeste 0 -- -- 89
2020-11-03 17:00:00 9 29 Oeste 36 Oeste 0.4 -- -- 88
2020-11-03 16:00:00 9.6 23 Oeste 32 Noroeste 0.4 -- -- 92
2020-11-03 15:00:00 9.9 20 Oeste 30 Oeste 0.4 -- -- 94
2020-11-03 14:00:00 10.1 17 Oeste 29 Oeste 0.4 -- -- 93
2020-11-03 13:00:00 10.9 16 Noroeste 25 Oeste 0 -- -- 89
2020-11-03 12:00:00 11.4 21 Oeste 34 Oeste 0 -- -- 87
2020-11-03 11:00:00 11.3 15 Noroeste 22 Noroeste 0.2 -- -- 91
2020-11-03 10:00:00 11.6 14 Oeste 19 Oeste 0 -- -- 91
2020-11-03 09:00:00 11.4 13 Oeste 17 Oeste 1.8 -- -- 91
2020-11-03 08:00:00 12.1 9 Oeste 14 Oeste 0 -- -- 78
2020-11-03 07:00:00 12.3 12 Oeste 15 Oeste 0 -- -- 76
2020-11-03 06:00:00 12.4 8 Oeste 15 Oeste 0 -- -- 73
2020-11-03 05:00:00 12.6 11 Oeste 14 Oeste 0 -- -- 72
2020-11-03 04:00:00 13.2 10 Oeste 12 Oeste 0 -- -- 70
2020-11-03 03:00:00 13.6 9 Sudoeste 12 Sudoeste 0 -- -- 70
2020-11-03 02:00:00 14.9 8 Sudoeste 10 Sudoeste 0 -- -- 67
2020-11-03 01:00:00 14.9 8 Sudoeste 13 Sudoeste 0 -- -- 65
2020-11-03 00:00:00 14.8 10 Sudoeste 18 Oeste 0 -- -- 59
2020-11-02 23:00:00 15.7 14 Oeste 18 Oeste 0 -- -- 55
2020-11-02 22:00:00 17.2 9 Noroeste 12 Noroeste 0 -- -- 57
2020-11-02 21:00:00 18 4 Noroeste 9 Oeste 0 -- -- 53
2020-11-02 20:00:00 18.7 4 Noroeste 9 Nordeste 0 -- -- 46
2020-11-02 19:00:00 19.3 6 Nordeste 8 Nordeste 0 -- -- 44
2020-11-02 18:00:00 19.4 7 Nordeste 16 Nordeste 0 -- -- 44
2020-11-02 17:00:00 20.8 11 Nordeste 15 Este 0 -- -- 41
2020-11-02 16:00:00 21.1 10 Nordeste 18 Este 0 -- -- 38
2020-11-02 15:00:00 21.3 10 Nordeste 21 Nordeste 0 -- -- 37
2020-11-02 14:00:00 21.7 15 Nordeste 22 Nordeste 0 -- -- 37
2020-11-02 13:00:00 22.6 14 Nordeste 22 Nordeste 0 -- -- 37
2020-11-02 12:00:00 22.4 6 Norte 16 Nordeste 0 -- -- 37
2020-11-02 11:00:00 19.8 9 Oeste 17 Oeste 0 -- -- 37
2020-11-02 10:00:00 16.8 16 Oeste 19 Oeste 0 -- -- 45
2020-11-02 09:00:00 13.8 16 Oeste 25 Oeste 0 -- -- 56
2020-11-02 08:00:00 12.4 21 Oeste 27 Oeste 0 -- -- 60
2020-11-02 07:00:00 12.1 19 Oeste 23 Oeste 0 -- -- 61
2020-11-02 06:00:00 12.9 16 Oeste 19 Oeste 0 -- -- 60
2020-11-02 05:00:00 13.4 17 Oeste 26 Oeste 0 -- -- 59
2020-11-02 04:00:00 13 21 Oeste 27 Oeste 0 -- -- 61
2020-11-02 03:00:00 13.8 20 Oeste 26 Oeste 0 -- -- 58
2020-11-02 02:00:00 14.1 20 Oeste 27 Oeste 0 -- -- 57
2020-11-02 01:00:00 14.9 17 Oeste 22 Oeste 0 -- -- 57
2020-11-02 00:00:00 14.6 14 Oeste 16 Oeste 0 -- -- 62
2020-11-01 23:00:00 16.1 13 Sudoeste 14 Sudoeste 0 -- -- 54
2020-11-01 22:00:00 16.6 9 Sudoeste 18 Sur 0 -- -- 57
2020-11-01 21:00:00 16.4 16 Sur 18 Sur 0 -- -- 59
2020-11-01 20:00:00 17.9 6 Sudeste 10 Sudeste 0 -- -- 56
2020-11-01 19:00:00 18.5 9 Este 11 Este 0 -- -- 55
2020-11-01 18:00:00 18.8 6 Este 11 Nordeste 0 -- -- 54
2020-11-01 17:00:00 19.8 9 Este 17 Nordeste 0 -- -- 51
2020-11-01 16:00:00 20.7 14 Nordeste 19 Norte 0 -- -- 48
2020-11-01 15:00:00 21.4 12 Norte 26 Nordeste 0 -- -- 46
2020-11-01 14:00:00 22 14 Nordeste 27 Oeste 0 -- -- 45
2020-11-01 13:00:00 21.8 15 Oeste 22 Oeste 0 -- -- 44
2020-11-01 12:00:00 20.7 15 Oeste 24 Oeste 0 -- -- 47
2020-11-01 11:00:00 18.2 10 Oeste 23 Oeste 0 -- -- 53
2020-11-01 10:00:00 15.6 18 Oeste 25 Oeste 0 -- -- 59
2020-11-01 09:00:00 12.7 11 Oeste 31 Oeste 0 -- -- 69
2020-11-01 08:00:00 11.3 20 Oeste 30 Oeste 0 -- -- 73
2020-11-01 07:00:00 13.3 18 Oeste 22 Oeste 0 -- -- 66
2020-11-01 06:00:00 13.9 16 Sudoeste 21 Oeste 0 -- -- 64
2020-11-01 05:00:00 13.3 16 Oeste 24 Oeste 0 -- -- 65
2020-11-01 04:00:00 13.7 16 Oeste 19 Sudoeste 0 -- -- 64
2020-11-01 03:00:00 14 14 Oeste 19 Oeste 0 -- -- 60
2020-11-01 02:00:00 14.8 14 Oeste 18 Oeste 0 -- -- 57
2020-11-01 01:00:00 14.3 15 Oeste 23 Oeste 0 -- -- 57
2020-11-01 00:00:00 14.2 15 Oeste 20 Oeste 0 -- -- 56
2020-10-31 23:00:00 14.2 19 Oeste 22 Oeste 0 -- -- 56
2020-10-31 22:00:00 15.2 17 Sudoeste 24 Oeste 0 -- -- 52
2020-10-31 21:00:00 16.7 15 Sudoeste 18 Oeste 0 -- -- 48
2020-10-31 20:00:00 17.8 10 Sudoeste 14 Sudoeste 0 -- -- 45
2020-10-31 19:00:00 17.9 12 Sudoeste 14 Sudoeste 0 -- -- 44
2020-10-31 18:00:00 19.5 3 Sudoeste 8 Este 0 -- -- 41
2020-10-31 17:00:00 19.9 7 Nordeste 14 Nordeste 0 -- -- 40
2020-10-31 16:00:00 20.2 11 Nordeste 23 Nordeste 0 -- -- 39
2020-10-31 15:00:00 21 15 Nordeste 25 Nordeste 0 -- -- 38
2020-10-31 14:00:00 22.5 7 Nordeste 13 Este 0 -- -- 34
2020-10-31 13:00:00 21 6 Este 17 Nordeste 0 -- -- 38
2020-10-31 12:00:00 20.4 9 Nordeste 20 Oeste 0 -- -- 41
2020-10-31 11:00:00 17.8 14 Oeste 19 Noroeste 0 -- -- 42
2020-10-31 10:00:00 14.5 12 Oeste 16 Oeste 0 -- -- 49
2020-10-31 09:00:00 11.9 13 Oeste 21 Oeste 0 -- -- 54
2020-10-31 08:00:00 11.1 18 Oeste 24 Oeste 0 -- -- 56
2020-10-31 07:00:00 10.9 14 Oeste 23 Oeste 0 -- -- 57
2020-10-31 06:00:00 11 20 Oeste 24 Oeste 0 -- -- 57
2020-10-31 05:00:00 10.8 16 Oeste 21 Oeste 0 -- -- 61
2020-10-31 04:00:00 11 14 Oeste 19 Oeste 0 -- -- 59
2020-10-31 03:00:00 10.9 13 Oeste 16 Oeste 0 -- -- 61
2020-10-31 02:00:00 12.7 10 Oeste 15 Oeste 0 -- -- 57
2020-10-31 01:00:00 12.3 10 Sudoeste 14 Oeste 0 -- -- 61
2020-10-31 00:00:00 12.6 12 Oeste 21 Oeste 0 -- -- 61
2020-10-30 23:00:00 12.5 16 Oeste 19 Oeste 0 -- -- 66
2020-10-30 22:00:00 13.3 15 Oeste 17 Oeste 0 -- -- 63
2020-10-30 21:00:00 14.4 9 Sudoeste 10 Sudoeste 0 -- -- 62
2020-10-30 20:00:00 15 5 Sudoeste 9 Sudoeste 0 -- -- 60
2020-10-30 19:00:00 15.7 3 Sudeste 6 Nordeste 0 -- -- 58
2020-10-30 18:00:00 15.8 5 Nordeste 10 Nordeste 0 -- -- 60
2020-10-30 17:00:00 16.8 9 Nordeste 16 Nordeste 0 -- -- 56
2020-10-30 16:00:00 17.4 11 Nordeste 20 Este 0 -- -- 53
2020-10-30 15:00:00 17.9 13 Nordeste 21 Este 0 -- -- 53
2020-10-30 14:00:00 18.2 13 Nordeste 19 Nordeste 0 -- -- 53
2020-10-30 13:00:00 18.2 12 Nordeste 18 Nordeste 0 -- -- 55
2020-10-30 12:00:00 17.8 6 Este 13 Nordeste 0 -- -- 53
2020-10-30 11:00:00 16.8 4 Nordeste 9 Nordeste 0 -- -- 55
2020-10-30 10:00:00 12.6 5 Sudoeste 10 Oeste 0 -- -- 65
2020-10-30 09:00:00 10.4 7 Oeste 15 Oeste 0 -- -- 71
2020-10-30 08:00:00 9.6 13 Oeste 17 Oeste 0 -- -- 73
2020-10-30 07:00:00 10 12 Oeste 17 Oeste 0 -- -- 72
2020-10-30 06:00:00 10.1 13 Oeste 21 Oeste 0 -- -- 73
2020-10-30 05:00:00 10.5 16 Oeste 21 Oeste 0 -- -- 74
2020-10-30 04:00:00 11 15 Oeste 22 Oeste 0 -- -- 73
2020-10-30 03:00:00 11 15 Oeste 20 Oeste 0 -- -- 77
2020-10-30 02:00:00 10.5 16 Oeste 19 Oeste 0 -- -- 81
2020-10-30 01:00:00 10.9 14 Oeste 16 Oeste 0 -- -- 79
2020-10-30 00:00:00 12.2 5 Sudoeste 11 Sudeste 0 -- -- 75
2020-10-29 23:00:00 14.3 9 Sudeste 13 Sudeste 0 -- -- 67
2020-10-29 22:00:00 14.4 10 Este 12 Este 0 -- -- 67
2020-10-29 21:00:00 14.5 9 Sudeste 11 Este 0 -- -- 67
2020-10-29 20:00:00 14.5 9 Este 11 Este 0 -- -- 67
2020-10-29 19:00:00 14.9 6 Este 9 Este 0 -- -- 65
2020-10-29 18:00:00 15.5 6 Nordeste 15 Nordeste 0 -- -- 63
2020-10-29 17:00:00 16.4 13 Nordeste 18 Nordeste 0 -- -- 61
2020-10-29 16:00:00 17.2 14 Nordeste 19 Nordeste 0 -- -- 58
2020-10-29 15:00:00 17.7 14 Nordeste 21 Nordeste 0 -- -- 57
2020-10-29 14:00:00 18.2 3 Norte 18 Sudoeste 0 -- -- 54
2020-10-29 13:00:00 17.5 5 Noroeste 15 Nordeste 0 -- -- 56
2020-10-29 12:00:00 16.7 7 Nordeste 21 Nordeste 0 -- -- 59
2020-10-29 11:00:00 15.4 10 Noroeste 21 Oeste 0 -- -- 66
2020-10-29 10:00:00 13.4 15 Sudoeste 29 Sudoeste 0 -- -- 74
2020-10-29 09:00:00 10.6 16 Oeste 22 Oeste 0 -- -- 84
2020-10-29 08:00:00 9.9 18 Oeste 24 Sudoeste 0 -- -- 85
2020-10-29 07:00:00 9.1 18 Oeste 26 Oeste 0 -- -- 89
2020-10-29 06:00:00 9 22 Oeste 28 Oeste 0 -- -- 90
2020-10-29 05:00:00 9.7 24 Oeste 28 Oeste 0 -- -- 88
2020-10-29 04:00:00 9.4 24 Oeste 27 Oeste 0 -- -- 87
2020-10-29 03:00:00 10 19 Oeste 23 Oeste 0 -- -- 86
2020-10-29 02:00:00 10.6 18 Oeste 22 Oeste 0 -- -- 84
2020-10-29 01:00:00 10.7 19 Oeste 23 Oeste 0 -- -- 83
2020-10-29 00:00:00 11.3 20 Oeste 27 Oeste 0 -- -- 81
2020-10-28 23:00:00 12.3 21 Oeste 25 Oeste 0 -- -- 77
2020-10-28 22:00:00 12.9 19 Oeste 22 Oeste 0 -- -- 72
2020-10-28 21:00:00 13.6 14 Oeste 19 Oeste 0 -- -- 70
2020-10-28 20:00:00 14.7 10 Sudoeste 15 Oeste 0 -- -- 65
2020-10-28 19:00:00 15.4 10 Oeste 24 Oeste 0 -- -- 63
2020-10-28 18:00:00 17 18 Noroeste 30 Noroeste 0 -- -- 56
2020-10-28 17:00:00 19 22 Oeste 28 Oeste 0 -- -- 50
2020-10-28 16:00:00 18.9 17 Noroeste 34 Noroeste 0 -- -- 51
2020-10-28 15:00:00 19 9 Norte 22 Nordeste 0 -- -- 52
2020-10-28 14:00:00 18.5 15 Nordeste 32 Oeste 0 -- -- 53
2020-10-28 13:00:00 18.6 6 Norte 23 Noroeste 0 -- -- 54
2020-10-28 12:00:00 18.2 10 Norte 32 Oeste 0 -- -- 54
2020-10-28 11:00:00 16.6 10 Noroeste 20 Noroeste 0 -- -- 59
2020-10-28 10:00:00 14.6 17 Oeste 21 Oeste 0 -- -- 65
2020-10-28 09:00:00 11.4 15 Sudoeste 17 Sudoeste 0 -- -- 74
2020-10-28 08:00:00 10.9 11 Sudoeste 22 Sudoeste 0 -- -- 75
2020-10-28 07:00:00 10.1 13 Sudoeste 20 Sudoeste 0 -- -- 76
2020-10-28 06:00:00 10 13 Oeste 25 Sudoeste 0 -- -- 76
2020-10-28 05:00:00 9.5 17 Sudoeste 33 Sudoeste 0 -- -- 77
2020-10-28 04:00:00 10.4 31 Sudoeste 37 Oeste 0 -- -- 72
2020-10-28 03:00:00 10.6 30 Oeste 36 Oeste 0 -- -- 69
2020-10-28 02:00:00 10.9 27 Sudoeste 32 Sudoeste 0 -- -- 67
2020-10-28 01:00:00 10.9 24 Sudoeste 43 Oeste 0 -- -- 66
2020-10-28 00:00:00 10.8 36 Oeste 46 Oeste 0 -- -- 67